sensor_id;sensor_type;location;lat;lon;timestamp;pressure;altitude;pressure_sealevel;temperature;humidity
23427;BME280;41148;45.420;10.952;2023-04-21T00:00:10;100500.00;;;12.29;81.30
23427;BME280;41148;45.420;10.952;2023-04-21T00:02:37;100498.47;;;12.22;80.82
23427;BME280;41148;45.420;10.952;2023-04-21T00:05:08;100490.34;;;12.25;80.13
23427;BME280;41148;45.420;10.952;2023-04-21T00:07:37;100484.44;;;12.17;80.35
23427;BME280;41148;45.420;10.952;2023-04-21T00:10:07;100473.84;;;12.14;80.21
23427;BME280;41148;45.420;10.952;2023-04-21T00:12:34;100463.09;;;12.17;80.74
23427;BME280;41148;45.420;10.952;2023-04-21T00:15:03;100485.06;;;12.23;81.04
23427;BME280;41148;45.420;10.952;2023-04-21T00:17:32;100477.97;;;12.22;81.45
23427;BME280;41148;45.420;10.952;2023-04-21T00:19:59;100481.78;;;12.17;82.44
23427;BME280;41148;45.420;10.952;2023-04-21T00:22:27;100480.84;;;12.18;82.01
23427;BME280;41148;45.420;10.952;2023-04-21T00:24:54;100469.97;;;12.22;81.48
23427;BME280;41148;45.420;10.952;2023-04-21T00:27:21;100473.41;;;12.26;80.77
23427;BME280;41148;45.420;10.952;2023-04-21T00:29:49;100468.06;;;12.26;80.72
23427;BME280;41148;45.420;10.952;2023-04-21T00:32:16;100470.75;;;12.26;80.60
23427;BME280;41148;45.420;10.952;2023-04-21T00:34:44;100470.63;;;12.29;80.98
23427;BME280;41148;45.420;10.952;2023-04-21T00:37:11;100464.47;;;12.27;81.52
23427;BME280;41148;45.420;10.952;2023-04-21T00:39:39;100466.16;;;12.29;82.25
23427;BME280;41148;45.420;10.952;2023-04-21T00:42:06;100469.91;;;12.24;82.78
23427;BME280;41148;45.420;10.952;2023-04-21T00:44:34;100453.94;;;12.22;81.15
23427;BME280;41148;45.420;10.952;2023-04-21T00:47:03;100453.06;;;12.22;81.52
23427;BME280;41148;45.420;10.952;2023-04-21T00:49:31;100453.00;;;12.23;81.78
23427;BME280;41148;45.420;10.952;2023-04-21T00:51:59;100455.00;;;12.18;81.35
23427;BME280;41148;45.420;10.952;2023-04-21T00:54:26;100452.22;;;12.21;81.70
23427;BME280;41148;45.420;10.952;2023-04-21T00:56:54;100459.16;;;12.25;81.39
23427;BME280;41148;45.420;10.952;2023-04-21T00:59:24;100450.97;;;12.30;81.04
23427;BME280;41148;45.420;10.952;2023-04-21T01:01:52;100457.00;;;12.35;79.17
23427;BME280;41148;45.420;10.952;2023-04-21T01:04:20;100455.16;;;12.37;79.63
23427;BME280;41148;45.420;10.952;2023-04-21T01:06:48;100458.41;;;12.45;79.69
23427;BME280;41148;45.420;10.952;2023-04-21T01:09:16;100456.28;;;12.53;79.35
23427;BME280;41148;45.420;10.952;2023-04-21T01:12:04;100463.00;;;12.64;78.78
23427;BME280;41148;45.420;10.952;2023-04-21T01:14:34;100465.69;;;12.64;79.03
23427;BME280;41148;45.420;10.952;2023-04-21T01:17:03;100456.78;;;12.63;79.18
23427;BME280;41148;45.420;10.952;2023-04-21T01:19:35;100463.88;;;12.64;80.52
23427;BME280;41148;45.420;10.952;2023-04-21T01:22:08;100459.22;;;12.69;78.45
23427;BME280;41148;45.420;10.952;2023-04-21T01:24:44;100465.44;;;12.70;79.23
23427;BME280;41148;45.420;10.952;2023-04-21T01:27:19;100473.09;;;12.79;78.57
23427;BME280;41148;45.420;10.952;2023-04-21T01:29:51;100468.53;;;12.81;77.26
23427;BME280;41148;45.420;10.952;2023-04-21T01:32:23;100460.28;;;12.87;77.42
23427;BME280;41148;45.420;10.952;2023-04-21T01:34:52;100457.63;;;12.87;77.44
23427;BME280;41148;45.420;10.952;2023-04-21T01:37:23;100463.59;;;12.94;76.90
23427;BME280;41148;45.420;10.952;2023-04-21T01:39:54;100453.94;;;12.89;77.37
23427;BME280;41148;45.420;10.952;2023-04-21T01:42:24;100457.47;;;12.90;77.15
23427;BME280;41148;45.420;10.952;2023-04-21T01:44:53;100449.28;;;12.95;76.77
23427;BME280;41148;45.420;10.952;2023-04-21T01:47:23;100447.22;;;12.79;77.82
23427;BME280;41148;45.420;10.952;2023-04-21T01:49:51;100450.78;;;12.80;77.84
23427;BME280;41148;45.420;10.952;2023-04-21T01:52:19;100429.03;;;12.67;77.72
23427;BME280;41148;45.420;10.952;2023-04-21T01:54:47;100450.03;;;12.76;77.78
23427;BME280;41148;45.420;10.952;2023-04-21T01:57:16;100441.59;;;12.65;77.45
23427;BME280;41148;45.420;10.952;2023-04-21T01:59:44;100435.28;;;12.88;77.41
23427;BME280;41148;45.420;10.952;2023-04-21T02:02:11;100452.13;;;12.90;78.04
23427;BME280;41148;45.420;10.952;2023-04-21T02:04:39;100450.59;;;12.84;77.42
23427;BME280;41148;45.420;10.952;2023-04-21T02:07:07;100427.72;;;12.77;77.60
23427;BME280;41148;45.420;10.952;2023-04-21T02:09:34;100444.97;;;12.90;77.31
23427;BME280;41148;45.420;10.952;2023-04-21T02:12:02;100435.28;;;12.88;76.59
23427;BME280;41148;45.420;10.952;2023-04-21T02:14:30;100453.69;;;12.96;76.71
23427;BME280;41148;45.420;10.952;2023-04-21T02:16:58;100436.94;;;12.90;76.56
23427;BME280;41148;45.420;10.952;2023-04-21T02:19:27;100434.22;;;12.92;76.74
23427;BME280;41148;45.420;10.952;2023-04-21T02:21:55;100429.22;;;12.84;76.45
23427;BME280;41148;45.420;10.952;2023-04-21T02:24:22;100430.13;;;12.83;76.18
23427;BME280;41148;45.420;10.952;2023-04-21T02:26:52;100440.41;;;12.94;76.05
23427;BME280;41148;45.420;10.952;2023-04-21T02:29:19;100430.31;;;12.79;76.85
23427;BME280;41148;45.420;10.952;2023-04-21T02:31:47;100442.59;;;12.83;76.93
23427;BME280;41148;45.420;10.952;2023-04-21T02:34:29;100440.22;;;12.77;77.28
23427;BME280;41148;45.420;10.952;2023-04-21T02:36:57;100446.72;;;12.92;75.75
23427;BME280;41148;45.420;10.952;2023-04-21T02:39:25;100438.69;;;12.92;75.55
23427;BME280;41148;45.420;10.952;2023-04-21T02:41:53;100436.09;;;12.90;75.92
23427;BME280;41148;45.420;10.952;2023-04-21T02:44:20;100459.13;;;12.94;76.01
23427;BME280;41148;45.420;10.952;2023-04-21T02:46:48;100458.97;;;12.97;76.64
23427;BME280;41148;45.420;10.952;2023-04-21T02:49:15;100449.22;;;12.96;76.33
23427;BME280;41148;45.420;10.952;2023-04-21T02:51:44;100454.19;;;13.05;75.75
23427;BME280;41148;45.420;10.952;2023-04-21T02:54:11;100465.19;;;12.98;75.60
23427;BME280;41148;45.420;10.952;2023-04-21T02:56:39;100448.94;;;13.02;75.27
23427;BME280;41148;45.420;10.952;2023-04-21T02:59:06;100451.75;;;12.99;75.34
23427;BME280;41148;45.420;10.952;2023-04-21T03:01:34;100463.06;;;13.06;77.01
23427;BME280;41148;45.420;10.952;2023-04-21T03:04:01;100487.88;;;13.09;76.01
23427;BME280;41148;45.420;10.952;2023-04-21T03:06:32;100458.84;;;13.00;76.94
23427;BME280;41148;45.420;10.952;2023-04-21T03:08:59;100461.56;;;12.99;77.03
23427;BME280;41148;45.420;10.952;2023-04-21T03:11:27;100473.91;;;13.03;77.39
23427;BME280;41148;45.420;10.952;2023-04-21T03:13:54;100472.41;;;12.96;77.64
23427;BME280;41148;45.420;10.952;2023-04-21T03:16:21;100468.00;;;12.95;78.10
23427;BME280;41148;45.420;10.952;2023-04-21T03:18:49;100475.75;;;13.01;78.51
23427;BME280;41148;45.420;10.952;2023-04-21T03:21:17;100483.41;;;12.88;79.20
23427;BME280;41148;45.420;10.952;2023-04-21T03:23:45;100485.84;;;12.94;79.57
23427;BME280;41148;45.420;10.952;2023-04-21T03:26:13;100483.91;;;12.98;78.24
23427;BME280;41148;45.420;10.952;2023-04-21T03:28:41;100480.22;;;13.00;77.57
23427;BME280;41148;45.420;10.952;2023-04-21T03:31:08;100482.66;;;13.06;77.63
23427;BME280;41148;45.420;10.952;2023-04-21T03:33:35;100488.19;;;13.02;78.21
23427;BME280;41148;45.420;10.952;2023-04-21T03:36:03;100491.00;;;12.99;79.47
23427;BME280;41148;45.420;10.952;2023-04-21T03:38:30;100476.88;;;12.95;79.44
23427;BME280;41148;45.420;10.952;2023-04-21T03:40:58;100480.50;;;12.94;79.22
23427;BME280;41148;45.420;10.952;2023-04-21T03:43:25;100486.50;;;12.99;78.42
23427;BME280;41148;45.420;10.952;2023-04-21T03:45:53;100476.59;;;13.03;78.38
23427;BME280;41148;45.420;10.952;2023-04-21T03:48:21;100477.63;;;13.21;76.09
23427;BME280;41148;45.420;10.952;2023-04-21T03:50:48;100469.78;;;13.16;75.85
23427;BME280;41148;45.420;10.952;2023-04-21T03:53:16;100481.66;;;13.09;76.43
23427;BME280;41148;45.420;10.952;2023-04-21T03:55:44;100471.22;;;13.03;77.08
23427;BME280;41148;45.420;10.952;2023-04-21T03:58:15;100484.78;;;12.98;76.98
23427;BME280;41148;45.420;10.952;2023-04-21T04:00:42;100475.19;;;12.93;77.05
23427;BME280;41148;45.420;10.952;2023-04-21T04:03:16;100481.31;;;12.96;76.92
23427;BME280;41148;45.420;10.952;2023-04-21T04:05:49;100471.41;;;12.98;76.49
23427;BME280;41148;45.420;10.952;2023-04-21T04:08:17;100477.34;;;12.84;77.51
23427;BME280;41148;45.420;10.952;2023-04-21T04:10:44;100483.72;;;12.80;78.55
23427;BME280;41148;45.420;10.952;2023-04-21T04:13:12;100473.97;;;12.79;77.74
23427;BME280;41148;45.420;10.952;2023-04-21T04:15:39;100485.00;;;12.92;77.69
23427;BME280;41148;45.420;10.952;2023-04-21T04:18:07;100481.13;;;12.79;78.26
23427;BME280;41148;45.420;10.952;2023-04-21T04:20:34;100483.56;;;12.61;79.38
23427;BME280;41148;45.420;10.952;2023-04-21T04:23:02;100490.84;;;12.58;79.88
23427;BME280;41148;45.420;10.952;2023-04-21T04:25:30;100483.88;;;12.54;79.65
23427;BME280;41148;45.420;10.952;2023-04-21T04:27:57;100494.28;;;12.61;79.25
23427;BME280;41148;45.420;10.952;2023-04-21T04:30:25;100490.22;;;12.51;81.62
23427;BME280;41148;45.420;10.952;2023-04-21T04:32:56;100475.84;;;12.32;82.64
23427;BME280;41148;45.420;10.952;2023-04-21T04:35:23;100491.63;;;12.38;81.75
23427;BME280;41148;45.420;10.952;2023-04-21T04:37:51;100511.00;;;12.43;83.51
23427;BME280;41148;45.420;10.952;2023-04-21T04:40:19;100503.88;;;12.44;83.54
23427;BME280;41148;45.420;10.952;2023-04-21T04:42:48;100505.66;;;12.43;84.08
23427;BME280;41148;45.420;10.952;2023-04-21T04:45:17;100519.03;;;12.43;85.00
23427;BME280;41148;45.420;10.952;2023-04-21T04:47:48;100509.75;;;12.30;85.35
23427;BME280;41148;45.420;10.952;2023-04-21T04:50:16;100511.63;;;12.28;86.15
23427;BME280;41148;45.420;10.952;2023-04-21T04:52:44;100509.63;;;12.33;85.47
23427;BME280;41148;45.420;10.952;2023-04-21T04:55:13;100507.16;;;12.28;85.83
23427;BME280;41148;45.420;10.952;2023-04-21T04:57:40;100517.41;;;12.39;85.80
23427;BME280;41148;45.420;10.952;2023-04-21T05:00:08;100535.38;;;12.36;86.45
23427;BME280;41148;45.420;10.952;2023-04-21T05:02:37;100529.72;;;12.43;86.53
23427;BME280;41148;45.420;10.952;2023-04-21T05:05:06;100521.59;;;12.46;86.57
23427;BME280;41148;45.420;10.952;2023-04-21T05:07:34;100515.34;;;12.47;87.27
23427;BME280;41148;45.420;10.952;2023-04-21T05:10:01;100524.94;;;12.51;86.96
23427;BME280;41148;45.420;10.952;2023-04-21T05:12:30;100523.06;;;12.55;89.23
23427;BME280;41148;45.420;10.952;2023-04-21T05:15:00;100531.69;;;12.61;87.86
23427;BME280;41148;45.420;10.952;2023-04-21T05:17:28;100535.13;;;12.65;88.38
23427;BME280;41148;45.420;10.952;2023-04-21T05:19:58;100544.03;;;12.66;90.09
23427;BME280;41148;45.420;10.952;2023-04-21T05:22:26;100540.28;;;12.70;89.45
23427;BME280;41148;45.420;10.952;2023-04-21T05:24:53;100538.47;;;12.70;89.34
23427;BME280;41148;45.420;10.952;2023-04-21T05:27:20;100542.81;;;12.73;88.97
23427;BME280;41148;45.420;10.952;2023-04-21T05:29:48;100545.81;;;12.65;88.60
23427;BME280;41148;45.420;10.952;2023-04-21T05:32:15;100546.84;;;12.61;89.86
23427;BME280;41148;45.420;10.952;2023-04-21T05:34:43;100548.88;;;12.54;90.37
23427;BME280;41148;45.420;10.952;2023-04-21T05:37:10;100551.47;;;12.57;91.08
23427;BME280;41148;45.420;10.952;2023-04-21T05:39:38;100548.53;;;12.64;90.21
23427;BME280;41148;45.420;10.952;2023-04-21T05:42:08;100555.88;;;12.58;90.36
23427;BME280;41148;45.420;10.952;2023-04-21T05:44:36;100558.53;;;12.58;91.67
23427;BME280;41148;45.420;10.952;2023-04-21T05:47:04;100562.94;;;12.59;91.14
23427;BME280;41148;45.420;10.952;2023-04-21T05:49:32;100551.69;;;12.51;91.36
23427;BME280;41148;45.420;10.952;2023-04-21T05:51:59;100553.69;;;12.45;92.98
23427;BME280;41148;45.420;10.952;2023-04-21T05:54:27;100554.69;;;12.42;92.71
23427;BME280;41148;45.420;10.952;2023-04-21T05:56:54;100563.31;;;12.50;91.87
23427;BME280;41148;45.420;10.952;2023-04-21T05:59:21;100566.91;;;12.49;91.95
23427;BME280;41148;45.420;10.952;2023-04-21T06:01:48;100569.16;;;12.60;91.08
23427;BME280;41148;45.420;10.952;2023-04-21T06:04:16;100572.28;;;12.71;91.23
23427;BME280;41148;45.420;10.952;2023-04-21T06:06:43;100575.75;;;12.75;92.39
23427;BME280;41148;45.420;10.952;2023-04-21T06:09:11;100562.19;;;12.79;89.74
23427;BME280;41148;45.420;10.952;2023-04-21T06:11:41;100566.47;;;12.83;89.95
23427;BME280;41148;45.420;10.952;2023-04-21T06:14:09;100563.50;;;12.91;89.78
23427;BME280;41148;45.420;10.952;2023-04-21T06:16:36;100559.00;;;12.92;87.53
23427;BME280;41148;45.420;10.952;2023-04-21T06:19:04;100569.75;;;13.13;87.49
23427;BME280;41148;45.420;10.952;2023-04-21T06:21:31;100559.69;;;13.20;86.87
23427;BME280;41148;45.420;10.952;2023-04-21T06:23:59;100552.28;;;13.27;85.79
23427;BME280;41148;45.420;10.952;2023-04-21T06:26:27;100551.66;;;13.42;84.56
23427;BME280;41148;45.420;10.952;2023-04-21T06:28:54;100561.78;;;13.56;82.69
23427;BME280;41148;45.420;10.952;2023-04-21T06:31:21;100557.38;;;13.75;83.50
23427;BME280;41148;45.420;10.952;2023-04-21T06:33:49;100573.69;;;13.89;83.40
23427;BME280;41148;45.420;10.952;2023-04-21T06:36:16;100551.69;;;14.03;81.22
23427;BME280;41148;45.420;10.952;2023-04-21T06:38:44;100559.56;;;14.26;79.65
23427;BME280;41148;45.420;10.952;2023-04-21T06:41:12;100542.06;;;14.38;76.91
23427;BME280;41148;45.420;10.952;2023-04-21T06:43:39;100548.78;;;14.67;75.50
23427;BME280;41148;45.420;10.952;2023-04-21T06:46:07;100538.34;;;14.80;73.10
23427;BME280;41148;45.420;10.952;2023-04-21T06:48:34;100554.94;;;15.07;72.53
23427;BME280;41148;45.420;10.952;2023-04-21T06:51:02;100559.31;;;15.44;71.22
23427;BME280;41148;45.420;10.952;2023-04-21T06:53:29;100569.97;;;15.99;68.04
23427;BME280;41148;45.420;10.952;2023-04-21T06:55:57;100565.34;;;15.85;66.19
23427;BME280;41148;45.420;10.952;2023-04-21T06:58:25;100569.38;;;15.94;65.57
23427;BME280;41148;45.420;10.952;2023-04-21T07:00:52;100578.44;;;16.09;66.75
23427;BME280;41148;45.420;10.952;2023-04-21T07:03:20;100571.19;;;15.93;65.17
23427;BME280;41148;45.420;10.952;2023-04-21T07:05:47;100555.53;;;15.67;65.72
23427;BME280;41148;45.420;10.952;2023-04-21T07:08:15;100580.50;;;15.69;65.83
23427;BME280;41148;45.420;10.952;2023-04-21T07:10:42;100560.56;;;15.56;66.03
23427;BME280;41148;45.420;10.952;2023-04-21T07:13:09;100566.28;;;15.67;65.84
23427;BME280;41148;45.420;10.952;2023-04-21T07:15:37;100578.38;;;15.76;65.24
23427;BME280;41148;45.420;10.952;2023-04-21T07:18:04;100572.75;;;15.80;62.57
23427;BME280;41148;45.420;10.952;2023-04-21T07:20:32;100566.59;;;16.13;62.73
23427;BME280;41148;45.420;10.952;2023-04-21T07:22:59;100576.59;;;16.26;62.12
23427;BME280;41148;45.420;10.952;2023-04-21T07:25:27;100579.78;;;16.17;61.08
23427;BME280;41148;45.420;10.952;2023-04-21T07:27:54;100592.66;;;16.11;62.33
23427;BME280;41148;45.420;10.952;2023-04-21T07:30:21;100591.72;;;16.12;61.04
23427;BME280;41148;45.420;10.952;2023-04-21T07:32:49;100596.63;;;16.03;62.08
23427;BME280;41148;45.420;10.952;2023-04-21T07:35:17;100592.44;;;15.98;60.96
23427;BME280;41148;45.420;10.952;2023-04-21T07:37:44;100603.56;;;15.90;61.61
23427;BME280;41148;45.420;10.952;2023-04-21T07:40:13;100594.78;;;15.69;63.58
23427;BME280;41148;45.420;10.952;2023-04-21T07:42:40;100603.50;;;15.74;63.10
23427;BME280;41148;45.420;10.952;2023-04-21T07:45:08;100601.34;;;15.81;63.12
23427;BME280;41148;45.420;10.952;2023-04-21T07:47:35;100603.00;;;15.66;63.16
23427;BME280;41148;45.420;10.952;2023-04-21T07:50:03;100595.16;;;15.62;63.61
23427;BME280;41148;45.420;10.952;2023-04-21T07:52:31;100601.69;;;15.75;63.37
23427;BME280;41148;45.420;10.952;2023-04-21T07:54:58;100608.88;;;15.74;63.46
23427;BME280;41148;45.420;10.952;2023-04-21T07:57:26;100602.13;;;15.66;63.00
23427;BME280;41148;45.420;10.952;2023-04-21T07:59:53;100604.66;;;15.69;63.92
23427;BME280;41148;45.420;10.952;2023-04-21T08:02:20;100609.13;;;16.05;62.11
23427;BME280;41148;45.420;10.952;2023-04-21T08:04:48;100610.28;;;16.16;61.94
23427;BME280;41148;45.420;10.952;2023-04-21T08:07:16;100612.09;;;15.98;61.83
23427;BME280;41148;45.420;10.952;2023-04-21T08:09:43;100620.78;;;16.38;61.18
23427;BME280;41148;45.420;10.952;2023-04-21T08:12:10;100620.28;;;16.47;59.63
23427;BME280;41148;45.420;10.952;2023-04-21T08:14:39;100611.44;;;16.45;58.88
23427;BME280;41148;45.420;10.952;2023-04-21T08:17:06;100624.78;;;16.47;59.07
23427;BME280;41148;45.420;10.952;2023-04-21T08:19:33;100607.28;;;16.22;59.91
23427;BME280;41148;45.420;10.952;2023-04-21T08:22:01;100625.06;;;16.25;59.83
23427;BME280;41148;45.420;10.952;2023-04-21T08:24:28;100608.16;;;16.23;59.57
23427;BME280;41148;45.420;10.952;2023-04-21T08:26:56;100613.06;;;15.97;60.27
23427;BME280;41148;45.420;10.952;2023-04-21T08:29:23;100616.53;;;16.17;60.65
23427;BME280;41148;45.420;10.952;2023-04-21T08:31:51;100609.34;;;16.17;60.44
23427;BME280;41148;45.420;10.952;2023-04-21T08:34:19;100630.91;;;16.33;59.01
23427;BME280;41148;45.420;10.952;2023-04-21T08:36:49;100620.66;;;16.24;60.42
23427;BME280;41148;45.420;10.952;2023-04-21T08:39:17;100622.38;;;15.90;60.97
23427;BME280;41148;45.420;10.952;2023-04-21T08:41:46;100627.19;;;16.18;59.86
23427;BME280;41148;45.420;10.952;2023-04-21T08:44:14;100626.97;;;16.23;59.81
23427;BME280;41148;45.420;10.952;2023-04-21T08:46:44;100638.69;;;16.22;59.99
23427;BME280;41148;45.420;10.952;2023-04-21T08:49:11;100645.34;;;16.30;59.11
23427;BME280;41148;45.420;10.952;2023-04-21T08:51:39;100638.25;;;16.29;58.27
23427;BME280;41148;45.420;10.952;2023-04-21T08:54:06;100636.84;;;16.22;58.64
23427;BME280;41148;45.420;10.952;2023-04-21T08:56:34;100630.75;;;16.19;58.32
23427;BME280;41148;45.420;10.952;2023-04-21T08:59:02;100649.25;;;16.25;58.90
23427;BME280;41148;45.420;10.952;2023-04-21T09:01:30;100659.63;;;16.15;59.51
23427;BME280;41148;45.420;10.952;2023-04-21T09:04:16;100644.34;;;16.33;59.41
23427;BME280;41148;45.420;10.952;2023-04-21T09:06:45;100629.88;;;16.18;59.86
23427;BME280;41148;45.420;10.952;2023-04-21T09:09:12;100642.13;;;16.41;59.57
23427;BME280;41148;45.420;10.952;2023-04-21T09:11:40;100634.84;;;16.43;59.32
23427;BME280;41148;45.420;10.952;2023-04-21T09:14:19;100645.22;;;16.51;58.38
23427;BME280;41148;45.420;10.952;2023-04-21T09:16:58;100640.44;;;16.56;58.71
23427;BME280;41148;45.420;10.952;2023-04-21T09:19:28;100643.03;;;16.57;58.69
23427;BME280;41148;45.420;10.952;2023-04-21T09:21:55;100628.91;;;16.54;58.22
23427;BME280;41148;45.420;10.952;2023-04-21T09:24:23;100622.72;;;16.69;58.26
23427;BME280;41148;45.420;10.952;2023-04-21T09:26:51;100630.72;;;16.71;58.33
23427;BME280;41148;45.420;10.952;2023-04-21T09:29:23;100639.47;;;16.74;58.06
23427;BME280;41148;45.420;10.952;2023-04-21T09:31:51;100638.44;;;16.77;58.05
23427;BME280;41148;45.420;10.952;2023-04-21T09:34:23;100636.75;;;16.92;58.16
23427;BME280;41148;45.420;10.952;2023-04-21T09:36:58;100638.91;;;16.85;58.32
23427;BME280;41148;45.420;10.952;2023-04-21T09:39:31;100635.88;;;16.91;57.38
23427;BME280;41148;45.420;10.952;2023-04-21T09:42:19;100633.69;;;16.82;57.35
23427;BME280;41148;45.420;10.952;2023-04-21T09:44:46;100639.22;;;16.79;57.72
23427;BME280;41148;45.420;10.952;2023-04-21T09:47:33;100626.72;;;16.78;57.08
23427;BME280;41148;45.420;10.952;2023-04-21T09:50:06;100631.00;;;16.98;57.45
23427;BME280;41148;45.420;10.952;2023-04-21T09:52:38;100629.44;;;16.94;57.19
23427;BME280;41148;45.420;10.952;2023-04-21T09:55:12;100634.50;;;17.00;56.99
23427;BME280;41148;45.420;10.952;2023-04-21T09:57:41;100641.72;;;16.99;57.87
23427;BME280;41148;45.420;10.952;2023-04-21T10:00:11;100634.94;;;17.24;56.59
23427;BME280;41148;45.420;10.952;2023-04-21T10:02:44;100629.53;;;17.08;58.04
23427;BME280;41148;45.420;10.952;2023-04-21T10:05:14;100632.78;;;17.30;57.05
23427;BME280;41148;45.420;10.952;2023-04-21T10:07:43;100619.38;;;17.44;55.52
23427;BME280;41148;45.420;10.952;2023-04-21T10:10:29;100624.53;;;17.49;54.85
23427;BME280;41148;45.420;10.952;2023-04-21T10:12:58;100614.84;;;17.61;55.07
23427;BME280;41148;45.420;10.952;2023-04-21T10:15:38;100615.09;;;17.56;54.88
23427;BME280;41148;45.420;10.952;2023-04-21T10:18:17;100614.41;;;17.68;55.16
23427;BME280;41148;45.420;10.952;2023-04-21T10:21:01;100606.69;;;17.46;54.22
23427;BME280;41148;45.420;10.952;2023-04-21T10:26:10;100603.28;;;17.74;53.88
23427;BME280;41148;45.420;10.952;2023-04-21T10:28:46;100585.63;;;17.39;54.22
23427;BME280;41148;45.420;10.952;2023-04-21T10:31:36;100607.66;;;17.77;53.86
23427;BME280;41148;45.420;10.952;2023-04-21T10:39:42;100597.22;;;17.55;53.99
23427;BME280;41148;45.420;10.952;2023-04-21T10:47:39;100599.28;;;17.82;52.17
23427;BME280;41148;45.420;10.952;2023-04-21T10:53:08;100598.78;;;17.59;54.43
23427;BME280;41148;45.420;10.952;2023-04-21T10:55:36;100589.28;;;17.84;54.52
23427;BME280;41148;45.420;10.952;2023-04-21T10:58:06;100609.94;;;17.99;52.94
23427;BME280;41148;45.420;10.952;2023-04-21T11:00:35;100611.16;;;17.93;52.88
23427;BME280;41148;45.420;10.952;2023-04-21T11:03:06;100590.66;;;17.91;53.62
23427;BME280;41148;45.420;10.952;2023-04-21T11:05:39;100584.81;;;18.13;52.03
23427;BME280;41148;45.420;10.952;2023-04-21T11:08:09;100604.09;;;18.07;52.71
23427;BME280;41148;45.420;10.952;2023-04-21T11:13:25;100592.25;;;18.09;51.62
23427;BME280;41148;45.420;10.952;2023-04-21T11:16:06;100587.50;;;17.98;51.30
23427;BME280;41148;45.420;10.952;2023-04-21T11:18:38;100600.34;;;18.09;50.21
23427;BME280;41148;45.420;10.952;2023-04-21T11:21:07;100598.06;;;17.87;50.34
23427;BME280;41148;45.420;10.952;2023-04-21T11:23:39;100591.72;;;17.88;50.88
23427;BME280;41148;45.420;10.952;2023-04-21T11:26:08;100603.38;;;18.03;51.21
23427;BME280;41148;45.420;10.952;2023-04-21T11:28:35;100607.88;;;18.18;51.19
23427;BME280;41148;45.420;10.952;2023-04-21T11:31:02;100596.78;;;18.09;51.69
23427;BME280;41148;45.420;10.952;2023-04-21T11:33:35;100576.97;;;17.94;51.84
23427;BME280;41148;45.420;10.952;2023-04-21T11:36:04;100596.78;;;18.09;51.58
23427;BME280;41148;45.420;10.952;2023-04-21T11:38:37;100578.75;;;18.09;50.74
23427;BME280;41148;45.420;10.952;2023-04-21T11:41:05;100581.09;;;18.15;52.04
23427;BME280;41148;45.420;10.952;2023-04-21T11:43:33;100588.06;;;18.48;51.35
23427;BME280;41148;45.420;10.952;2023-04-21T11:46:12;100589.59;;;18.38;50.09
23427;BME280;41148;45.420;10.952;2023-04-21T11:48:42;100604.16;;;18.35;49.49
23427;BME280;41148;45.420;10.952;2023-04-21T11:51:14;100602.31;;;18.36;49.78
23427;BME280;41148;45.420;10.952;2023-04-21T11:53:41;100595.75;;;18.25;51.23
23427;BME280;41148;45.420;10.952;2023-04-21T11:56:08;100582.16;;;18.41;51.23
23427;BME280;41148;45.420;10.952;2023-04-21T11:58:38;100602.72;;;18.58;49.55
23427;BME280;41148;45.420;10.952;2023-04-21T12:01:07;100582.34;;;18.52;48.97
23427;BME280;41148;45.420;10.952;2023-04-21T12:03:35;100589.59;;;18.52;48.44
23427;BME280;41148;45.420;10.952;2023-04-21T12:06:03;100573.47;;;18.22;49.54
23427;BME280;41148;45.420;10.952;2023-04-21T12:08:30;100593.72;;;18.29;49.64
23427;BME280;41148;45.420;10.952;2023-04-21T12:10:58;100589.75;;;18.20;48.38
23427;BME280;41148;45.420;10.952;2023-04-21T12:13:27;100592.19;;;18.39;48.45
23427;BME280;41148;45.420;10.952;2023-04-21T12:15:54;100597.38;;;18.72;46.40
23427;BME280;41148;45.420;10.952;2023-04-21T12:18:26;100597.84;;;18.65;47.65
23427;BME280;41148;45.420;10.952;2023-04-21T12:20:53;100596.25;;;18.46;48.41
23427;BME280;41148;45.420;10.952;2023-04-21T12:23:21;100588.81;;;18.50;48.56
23427;BME280;41148;45.420;10.952;2023-04-21T12:25:48;100593.16;;;18.52;46.14
23427;BME280;41148;45.420;10.952;2023-04-21T12:28:17;100597.16;;;18.75;45.87
23427;BME280;41148;45.420;10.952;2023-04-21T12:30:44;100601.22;;;18.82;46.19
23427;BME280;41148;45.420;10.952;2023-04-21T12:33:14;100603.59;;;18.87;47.58
23427;BME280;41148;45.420;10.952;2023-04-21T12:35:42;100603.41;;;18.76;47.71
23427;BME280;41148;45.420;10.952;2023-04-21T12:38:09;100593.53;;;18.60;48.48
23427;BME280;41148;45.420;10.952;2023-04-21T12:40:36;100606.84;;;18.49;48.25
23427;BME280;41148;45.420;10.952;2023-04-21T12:43:04;100596.53;;;18.27;49.54
23427;BME280;41148;45.420;10.952;2023-04-21T12:45:31;100603.63;;;18.28;50.07
23427;BME280;41148;45.420;10.952;2023-04-21T12:47:59;100598.84;;;18.34;50.28
23427;BME280;41148;45.420;10.952;2023-04-21T12:50:27;100595.56;;;18.43;49.30
23427;BME280;41148;45.420;10.952;2023-04-21T12:52:54;100602.34;;;18.64;49.44
23427;BME280;41148;45.420;10.952;2023-04-21T12:55:22;100596.06;;;18.64;48.51
23427;BME280;41148;45.420;10.952;2023-04-21T12:57:49;100592.28;;;18.52;50.23
23427;BME280;41148;45.420;10.952;2023-04-21T13:00:17;100595.75;;;18.40;51.07
23427;BME280;41148;45.420;10.952;2023-04-21T13:02:45;100591.44;;;18.37;51.11
23427;BME280;41148;45.420;10.952;2023-04-21T13:05:12;100582.84;;;18.59;48.77
23427;BME280;41148;45.420;10.952;2023-04-21T13:07:40;100594.06;;;18.67;49.06